TED STEVENS ANCHORAGE INTL

PANC (ANC)
Anchorage, Alaska
Towered

Vatsim Metar:
PANC 110953Z 00000KT 10SM SCT070 M01/M03 A2954 RMK AO2 SLP004 T10111033 $

No ATC Online

Traffic

Inbound:
None
Outbound:
Ident
Type
Name
Destination
Phase
AXX100
B748/L
Juuso Knuts
PGUM
Boarding
CXA554
H/DC3
Louis Massicotte CYYC
PAVD
Climb